Time;durP1;ratioP1;P1;durP2;ratioP2;P2;SDS_P1;SDS_P2;PMS_P1;PMS_P2;Temp;Humidity;BMP_temperature;BMP_pressure;BME280_temperature;BME280_humidity;BME280_pressure;Samples;Min_cycle;Max_cycle;Signal;HPM_P1;HPM_P2
2021/05/09 00:00:32;;;;;;;;;;;13.40;92.80;;;;;;5040338;28;19928;-86
2021/05/09 00:02:58;;;;;;;;;;;13.40;92.90;;;;;;5040964;28;19905;-86
2021/05/09 00:05:23;;;;;;;;;;;13.40;92.80;;;;;;5055910;28;19905;-86
2021/05/09 00:07:49;;;;;;;;;;;13.40;92.80;;;;;;5039422;28;19905;-86
2021/05/09 00:10:15;;;;;;;;;;;13.40;92.80;;;;;;5039366;28;20282;-85
2021/05/09 00:12:40;;;;;;;;;;;13.30;92.70;;;;;;5041305;28;19905;-85
2021/05/09 00:15:07;;;;;;;;;;;13.30;92.70;;;;;;5044029;28;19909;-85
2021/05/09 00:17:33;;;;;;;;;;;13.30;92.70;;;;;;5043803;28;19905;-85
2021/05/09 00:19:58;;;;;;;;;;;13.30;92.70;;;;;;5039739;28;19971;-85
2021/05/09 00:22:24;;;;;;;;;;;13.30;92.70;;;;;;5042304;28;19911;-85
2021/05/09 00:24:49;;;;;;;;;;;13.30;92.70;;;;;;5032980;28;19995;-85
2021/05/09 00:27:15;;;;;;;;;;;13.30;92.70;;;;;;5048166;22;19920;-86
2021/05/09 00:29:40;;;;;;;;;;;13.30;92.80;;;;;;5029658;28;19920;-87
2021/05/09 00:32:06;;;;;;;;;;;13.20;92.80;;;;;;5032457;28;19909;-87
2021/05/09 00:34:31;;;;;;;;;;;13.30;92.80;;;;;;5032387;28;19976;-87
2021/05/09 00:36:57;;;;;;;;;;;13.20;92.80;;;;;;5047470;28;19948;-87
2021/05/09 00:39:22;;;;;;;;;;;13.20;92.80;;;;;;5046931;28;19917;-87
2021/05/09 00:41:48;;;;;;;;;;;13.30;92.80;;;;;;5030922;28;20416;-87
2021/05/09 00:44:13;;;;;;;;;;;13.20;92.80;;;;;;5030940;28;20008;-87
2021/05/09 00:46:39;;;;;;;;;;;13.20;92.70;;;;;;5030983;28;19940;-87
2021/05/09 00:49:05;;;;;;;;;;;13.20;92.70;;;;;;5031590;28;19909;-88
2021/05/09 00:51:30;;;;;;;;;;;13.20;92.70;;;;;;5030748;28;19948;-87
2021/05/09 00:53:57;;;;;;;;;;;13.20;92.70;;;;;;5030998;28;20242;-87
2021/05/09 00:56:24;;;;;;;;;;;13.20;92.70;;;;;;5032084;28;20384;-87
2021/05/09 00:58:50;;;;;;;;;;;13.20;92.70;;;;;;5047128;28;19932;-87
2021/05/09 01:01:17;;;;;;;;;;;13.20;92.60;;;;;;5031797;28;19912;-87
2021/05/09 01:03:44;;;;;;;;;;;13.20;92.60;;;;;;5031965;28;19909;-87
2021/05/09 01:06:10;;;;;;;;;;;13.20;92.60;;;;;;5049444;28;19958;-88
2021/05/09 01:08:36;;;;;;;;;;;13.20;92.60;;;;;;5034592;28;20376;-88
2021/05/09 01:11:02;;;;;;;;;;;13.20;92.60;;;;;;5035126;28;19909;-88
2021/05/09 01:13:28;;;;;;;;;;;13.20;92.60;;;;;;5034197;28;19990;-88
2021/05/09 01:15:54;;;;;;;;;;;13.20;92.50;;;;;;5035661;28;19951;-87
2021/05/09 01:18:19;;;;;;;;;;;13.20;92.50;;;;;;5035502;28;20003;-87
2021/05/09 01:20:45;;;;;;;;;;;13.20;92.50;;;;;;5033757;28;19912;-87
2021/05/09 01:23:11;;;;;;;;;;;13.20;92.40;;;;;;5034126;28;20003;-87
2021/05/09 01:25:36;;;;;;;;;;;13.10;92.30;;;;;;5033994;28;20005;-87
2021/05/09 01:28:03;;;;;;;;;;;13.20;92.30;;;;;;5035349;28;19967;-88
2021/05/09 01:30:29;;;;;;;;;;;13.20;92.30;;;;;;5034701;28;19908;-87
2021/05/09 01:32:55;;;;;;;;;;;13.20;92.20;;;;;;5035207;28;19960;-87
2021/05/09 01:35:20;;;;;;;;;;;13.10;92.20;;;;;;5033964;28;19905;-88
2021/05/09 01:37:46;;;;;;;;;;;13.20;92.20;;;;;;5034948;28;19951;-87
2021/05/09 01:40:13;;;;;;;;;;;13.20;92.20;;;;;;5034792;28;19905;-87
2021/05/09 01:42:39;;;;;;;;;;;13.20;92.20;;;;;;5035083;28;19909;-88
2021/05/09 01:45:05;;;;;;;;;;;13.20;92.10;;;;;;5033731;28;19905;-87
2021/05/09 01:47:30;;;;;;;;;;;13.20;92.10;;;;;;5034891;28;19958;-87
2021/05/09 01:49:56;;;;;;;;;;;13.10;92.10;;;;;;5033269;28;19970;-87
2021/05/09 01:52:22;;;;;;;;;;;13.20;92.10;;;;;;5033547;28;19980;-87
2021/05/09 01:54:48;;;;;;;;;;;13.20;92.20;;;;;;5033496;28;19931;-87
2021/05/09 01:57:13;;;;;;;;;;;13.20;92.10;;;;;;5034800;28;19999;-87
2021/05/09 01:59:39;;;;;;;;;;;13.20;92.10;;;;;;5034098;28;19915;-87
2021/05/09 02:02:05;;;;;;;;;;;13.20;92.10;;;;;;5033360;28;20289;-87
2021/05/09 02:04:30;;;;;;;;;;;13.10;92.10;;;;;;5033414;28;20081;-87
2021/05/09 02:06:56;;;;;;;;;;;13.20;92.10;;;;;;5034654;28;19905;-88
2021/05/09 02:09:21;;;;;;;;;;;13.10;92.10;;;;;;5032945;28;19905;-88
2021/05/09 02:11:47;;;;;;;;;;;13.20;92.20;;;;;;5033205;28;19959;-87
2021/05/09 02:14:12;;;;;;;;;;;13.10;92.20;;;;;;5033142;28;19916;-87
2021/05/09 02:16:38;;;;;;;;;;;13.10;92.20;;;;;;5031745;28;19970;-87
2021/05/09 02:19:03;;;;;;;;;;;13.10;92.20;;;;;;5032512;28;20309;-87
2021/05/09 02:21:29;;;;;;;;;;;13.10;92.20;;;;;;5032681;28;19991;-88
2021/05/09 02:23:54;;;;;;;;;;;13.10;92.20;;;;;;5032965;28;19912;-87
2021/05/09 02:26:20;;;;;;;;;;;13.10;92.20;;;;;;5049630;28;20357;-87
2021/05/09 02:28:45;;;;;;;;;;;13.10;92.20;;;;;;5033987;28;20035;-87
2021/05/09 02:31:11;;;;;;;;;;;13.10;92.20;;;;;;5032713;28;19954;-87
2021/05/09 02:33:36;;;;;;;;;;;13.10;92.30;;;;;;5034222;28;20301;-87
2021/05/09 02:36:02;;;;;;;;;;;13.10;92.30;;;;;;5034062;28;19959;-87
2021/05/09 02:38:27;;;;;;;;;;;13.10;92.30;;;;;;5032420;28;19916;-87
2021/05/09 02:40:53;;;;;;;;;;;13.10;92.40;;;;;;5048895;28;20047;-87
2021/05/09 02:43:19;;;;;;;;;;;13.00;92.40;;;;;;5033869;28;20404;-88
2021/05/09 02:45:44;;;;;;;;;;;13.10;92.50;;;;;;5033976;28;19920;-87
2021/05/09 02:48:10;;;;;;;;;;;13.00;92.50;;;;;;5035913;28;20361;-87
2021/05/09 02:50:36;;;;;;;;;;;13.10;92.60;;;;;;5037329;28;20361;-87
2021/05/09 02:53:01;;;;;;;;;;;13.10;92.60;;;;;;5037957;28;19905;-87
2021/05/09 02:55:27;;;;;;;;;;;13.00;92.60;;;;;;5051462;28;19905;-87
2021/05/09 02:57:52;;;;;;;;;;;13.00;92.70;;;;;;5033921;28;20143;-87
2021/05/09 03:00:18;;;;;;;;;;;13.00;92.70;;;;;;5033073;28;19997;-87
2021/05/09 03:02:43;;;;;;;;;;;13.00;92.80;;;;;;5032188;28;20349;-88
2021/05/09 03:05:09;;;;;;;;;;;13.00;92.80;;;;;;5032260;28;19912;-87
2021/05/09 03:07:35;;;;;;;;;;;13.00;92.90;;;;;;5033411;28;19928;-87
2021/05/09 03:10:00;;;;;;;;;;;13.00;92.90;;;;;;5032908;28;19908;-87
2021/05/09 03:12:26;;;;;;;;;;;13.00;93.30;;;;;;5033209;28;20277;-87
2021/05/09 03:14:51;;;;;;;;;;;13.00;93.00;;;;;;5032130;28;19912;-87
2021/05/09 03:17:17;;;;;;;;;;;13.00;93.10;;;;;;5031963;28;19930;-87
2021/05/09 03:19:42;;;;;;;;;;;13.00;93.20;;;;;;5047957;28;20443;-87
2021/05/09 03:22:08;;;;;;;;;;;13.00;93.20;;;;;;5033065;28;19905;-87
2021/05/09 03:24:33;;;;;;;;;;;13.00;93.30;;;;;;5031855;28;20321;-87
2021/05/09 03:26:59;;;;;;;;;;;13.00;93.20;;;;;;5033088;28;19919;-87
2021/05/09 03:29:25;;;;;;;;;;;13.00;93.30;;;;;;5032107;28;20292;-87
2021/05/09 03:31:50;;;;;;;;;;;13.00;93.30;;;;;;5031729;28;19905;-87
2021/05/09 03:34:16;;;;;;;;;;;13.00;93.30;;;;;;5032113;28;20354;-87
2021/05/09 03:36:41;;;;;;;;;;;13.00;93.30;;;;;;5031606;28;19909;-87
2021/05/09 03:39:07;;;;;;;;;;;13.00;93.30;;;;;;5032383;28;19964;-88
2021/05/09 03:41:32;;;;;;;;;;;13.00;93.40;;;;;;5031515;28;19909;-88
2021/05/09 03:43:57;;;;;;;;;;;13.00;93.40;;;;;;5032857;28;20407;-87
2021/05/09 03:46:23;;;;;;;;;;;13.00;93.40;;;;;;5048122;28;19909;-87
2021/05/09 03:48:48;;;;;;;;;;;13.00;93.50;;;;;;5031075;28;19905;-88
2021/05/09 03:51:14;;;;;;;;;;;13.00;93.50;;;;;;5031177;28;19909;-86
2021/05/09 03:53:39;;;;;;;;;;;13.00;93.60;;;;;;5031390;28;20362;-87
2021/05/09 03:56:05;;;;;;;;;;;13.00;93.60;;;;;;5031672;28;20332;-87
2021/05/09 03:58:30;;;;;;;;;;;13.00;93.50;;;;;;5047948;28;19909;-87
2021/05/09 04:00:56;;;;;;;;;;;13.00;93.60;;;;;;5032010;28;19905;-87
2021/05/09 04:03:29;;;;;;;;;;;13.00;93.50;;;;;;5031205;28;19912;-87
2021/05/09 04:05:55;;;;;;;;;;;13.00;93.80;;;;;;5031270;28;19912;-88
2021/05/09 04:08:21;;;;;;;;;;;13.00;93.50;;;;;;5031219;28;19905;-88
2021/05/09 04:10:47;;;;;;;;;;;13.00;93.50;;;;;;5031916;28;19905;-87
2021/05/09 04:13:13;;;;;;;;;;;13.00;93.60;;;;;;5031156;28;20444;-87
2021/05/09 04:15:39;;;;;;;;;;;13.00;93.50;;;;;;5032518;28;19947;-87
2021/05/09 04:18:05;;;;;;;;;;;13.00;93.50;;;;;;5032424;28;19909;-87
2021/05/09 04:20:30;;;;;;;;;;;13.00;93.60;;;;;;5032170;28;19905;-88
2021/05/09 04:23:15;;;;;;;;;;;13.00;93.60;;;;;;5032593;28;19911;-87
2021/05/09 04:25:46;;;;;;;;;;;13.00;93.60;;;;;;5032534;28;19940;-88
2021/05/09 04:28:11;;;;;;;;;;;13.00;93.60;;;;;;5033888;28;20385;-88
2021/05/09 04:30:37;;;;;;;;;;;13.00;93.60;;;;;;5031265;28;19912;-87
2021/05/09 04:33:03;;;;;;;;;;;13.00;93.60;;;;;;5032180;28;19915;-87
2021/05/09 04:35:29;;;;;;;;;;;13.00;93.60;;;;;;5031091;28;19909;-87
2021/05/09 04:37:55;;;;;;;;;;;13.00;93.60;;;;;;5030833;28;20487;-87
2021/05/09 04:40:20;;;;;;;;;;;13.10;93.60;;;;;;5032603;28;19958;-87
2021/05/09 04:42:46;;;;;;;;;;;13.10;93.60;;;;;;5036169;28;19905;-88
2021/05/09 04:45:12;;;;;;;;;;;13.10;93.60;;;;;;5034839;28;20336;-88
2021/05/09 04:47:37;;;;;;;;;;;13.10;93.70;;;;;;5034821;28;19905;-88
2021/05/09 04:50:03;;;;;;;;;;;13.10;93.70;;;;;;5034381;28;19905;-87
2021/05/09 04:52:29;;;;;;;;;;;13.10;93.70;;;;;;5034682;28;20362;-87
2021/05/09 04:54:54;;;;;;;;;;;13.20;93.70;;;;;;5034676;28;19912;-87
2021/05/09 04:57:20;;;;;;;;;;;13.10;93.70;;;;;;5034595;28;19909;-87
2021/05/09 04:59:55;;;;;;;;;;;13.20;93.70;;;;;;5035477;28;20332;-87
2021/05/09 05:02:47;;;;;;;;;;;13.20;93.70;;;;;;4998259;28;19905;-87
2021/05/09 05:05:13;;;;;;;;;;;13.30;93.70;;;;;;5013533;28;20382;-87
2021/05/09 05:08:00;;;;;;;;;;;13.30;93.70;;;;;;5035496;28;19905;-87
2021/05/09 05:11:06;;;;;;;;;;;13.30;93.60;;;;;;5034021;28;19999;-87
2021/05/09 05:13:37;;;;;;;;;;;13.30;93.50;;;;;;5024754;28;19905;-87
2021/05/09 05:16:22;;;;;;;;;;;13.40;93.40;;;;;;5029607;28;20102;-87
2021/05/09 05:18:48;;;;;;;;;;;13.40;93.30;;;;;;5050525;28;19909;-87
2021/05/09 05:21:13;;;;;;;;;;;13.40;93.30;;;;;;5035211;28;19909;-87
2021/05/09 05:23:39;;;;;;;;;;;13.50;93.20;;;;;;5050630;28;19905;-88
2021/05/09 05:26:04;;;;;;;;;;;13.50;93.10;;;;;;5034082;28;20281;-87
2021/05/09 05:28:30;;;;;;;;;;;13.50;93.00;;;;;;5050556;28;19997;-87
2021/05/09 05:30:56;;;;;;;;;;;13.50;92.90;;;;;;5035122;28;19905;-87
2021/05/09 05:37:14;;;;;;;;;;;13.60;92.90;;;;;;5035338;28;20332;-87
2021/05/09 05:39:57;;;;;;;;;;;13.50;92.90;;;;;;5027429;28;19987;-87
2021/05/09 05:42:41;;;;;;;;;;;13.50;92.90;;;;;;5032959;28;19999;-87
2021/05/09 05:45:32;;;;;;;;;;;13.60;92.90;;;;;;5033663;28;19956;-87
2021/05/09 05:48:19;;;;;;;;;;;13.60;92.90;;;;;;4992847;28;19917;-87
2021/05/09 05:51:13;;;;;;;;;;;13.60;92.80;;;;;;4999878;28;20427;-87
2021/05/09 05:53:41;;;;;;;;;;;13.70;92.80;;;;;;5010477;28;20398;-87
2021/05/09 05:56:16;;;;;;;;;;;13.70;92.70;;;;;;5021042;28;19941;-87
2021/05/09 05:58:43;;;;;;;;;;;13.80;92.60;;;;;;5034276;28;19909;-87
2021/05/09 06:01:09;;;;;;;;;;;13.80;92.50;;;;;;5034125;28;19905;-87
2021/05/09 06:03:34;;;;;;;;;;;13.80;92.40;;;;;;5033429;28;19905;-87
2021/05/09 06:06:00;;;;;;;;;;;13.90;92.40;;;;;;5033426;28;19975;-87
2021/05/09 06:08:25;;;;;;;;;;;13.90;92.20;;;;;;5033240;28;19912;-87
2021/05/09 06:10:51;;;;;;;;;;;13.90;92.20;;;;;;5034153;28;19905;-87
2021/05/09 06:13:20;;;;;;;;;;;14.00;92.10;;;;;;5033362;28;19948;-87
2021/05/09 06:15:45;;;;;;;;;;;14.10;92.00;;;;;;5033551;28;20277;-87
2021/05/09 06:18:19;;;;;;;;;;;14.10;91.90;;;;;;5033325;28;19909;-87
2021/05/09 06:20:46;;;;;;;;;;;14.20;91.60;;;;;;5032081;28;19940;-87
2021/05/09 06:23:29;;;;;;;;;;;14.30;91.50;;;;;;5032847;28;19912;-87
2021/05/09 06:25:55;;;;;;;;;;;14.30;91.90;;;;;;5033177;28;20324;-87
2021/05/09 06:28:21;;;;;;;;;;;14.30;91.50;;;;;;5057823;23;19928;-84
2021/05/09 06:30:47;;;;;;;;;;;14.30;91.50;;;;;;5037692;28;20368;-82
2021/05/09 06:33:13;;;;;;;;;;;14.40;91.50;;;;;;5055696;28;19944;-82
2021/05/09 06:35:39;;;;;;;;;;;14.40;91.50;;;;;;5038643;28;20008;-83
2021/05/09 06:38:06;;;;;;;;;;;14.40;91.40;;;;;;5039154;28;19992;-83
2021/05/09 06:40:33;;;;;;;;;;;14.50;91.40;;;;;;5038575;28;19912;-84
2021/05/09 06:42:59;;;;;;;;;;;14.50;91.30;;;;;;5040664;28;19905;-84
2021/05/09 06:45:27;;;;;;;;;;;14.50;91.40;;;;;;5040542;28;19963;-83
2021/05/09 06:47:53;;;;;;;;;;;14.60;91.30;;;;;;5038879;28;20392;-82
2021/05/09 06:50:18;;;;;;;;;;;14.70;91.20;;;;;;5038385;28;20290;-82
2021/05/09 06:52:44;;;;;;;;;;;14.70;91.30;;;;;;5038737;28;19963;-83
2021/05/09 06:55:13;;;;;;;;;;;14.80;91.30;;;;;;5039307;28;19905;-82
2021/05/09 06:57:39;;;;;;;;;;;14.80;91.40;;;;;;5055868;28;19905;-83
2021/05/09 07:00:05;;;;;;;;;;;14.80;91.30;;;;;;5039095;28;19909;-82
2021/05/09 07:02:31;;;;;;;;;;;14.90;90.90;;;;;;5037569;28;19999;-83
2021/05/09 07:04:56;;;;;;;;;;;15.00;90.90;;;;;;5038564;28;20005;-84
2021/05/09 07:07:22;;;;;;;;;;;15.00;90.70;;;;;;5039769;28;20005;-83
2021/05/09 07:09:47;;;;;;;;;;;15.10;90.70;;;;;;5037148;28;19905;-83
2021/05/09 07:12:13;;;;;;;;;;;15.10;90.70;;;;;;5037335;28;20025;-84
2021/05/09 07:14:39;;;;;;;;;;;15.10;90.80;;;;;;5038234;28;20317;-83
2021/05/09 07:17:04;;;;;;;;;;;15.20;90.90;;;;;;5037737;28;20312;-83
2021/05/09 07:19:30;;;;;;;;;;;15.30;90.50;;;;;;5041273;28;19917;-83
2021/05/09 07:22:00;;;;;;;;;;;15.30;90.60;;;;;;5045411;28;19905;-83
2021/05/09 07:24:26;;;;;;;;;;;15.40;90.30;;;;;;5062965;28;20003;-83
2021/05/09 07:26:52;;;;;;;;;;;15.40;90.40;;;;;;5060898;28;20421;-85
2021/05/09 07:29:17;;;;;;;;;;;15.40;90.40;;;;;;5056316;28;20281;-84
2021/05/09 07:31:43;;;;;;;;;;;15.50;90.40;;;;;;5041157;28;19959;-83
2021/05/09 07:34:09;;;;;;;;;;;15.50;90.30;;;;;;5040698;28;19909;-84
2021/05/09 07:36:36;;;;;;;;;;;15.60;90.10;;;;;;5039331;28;19905;-84
2021/05/09 07:39:02;;;;;;;;;;;15.60;90.10;;;;;;5039558;28;19909;-85
2021/05/09 07:41:28;;;;;;;;;;;15.60;90.30;;;;;;5056295;28;19956;-84
2021/05/09 07:43:53;;;;;;;;;;;15.60;90.40;;;;;;5039272;28;19905;-85
2021/05/09 07:46:19;;;;;;;;;;;15.70;90.20;;;;;;5036950;28;20004;-84
2021/05/09 07:48:45;;;;;;;;;;;15.90;89.50;;;;;;5037839;28;19905;-84
2021/05/09 07:51:11;;;;;;;;;;;15.90;89.50;;;;;;5037731;28;19905;-83
2021/05/09 07:53:37;;;;;;;;;;;15.90;89.50;;;;;;5038557;28;19906;-84
2021/05/09 07:56:02;;;;;;;;;;;15.90;89.70;;;;;;5037960;28;19940;-84
2021/05/09 07:58:28;;;;;;;;;;;16.10;89.40;;;;;;5037551;28;19956;-84
2021/05/09 08:00:53;;;;;;;;;;;16.20;88.90;;;;;;5035807;28;19909;-83
2021/05/09 08:03:22;;;;;;;;;;;16.30;88.70;;;;;;5037120;28;19935;-84
2021/05/09 08:05:47;;;;;;;;;;;16.30;88.30;;;;;;5036937;28;19948;-83
2021/05/09 08:08:13;;;;;;;;;;;16.30;88.80;;;;;;5038309;28;20336;-83
2021/05/09 08:10:41;;;;;;;;;;;16.30;88.40;;;;;;5035620;28;20007;-84
2021/05/09 08:13:07;;;;;;;;;;;16.50;88.00;;;;;;5036229;28;19913;-84
2021/05/09 08:15:33;;;;;;;;;;;16.50;88.40;;;;;;5036592;28;19909;-83
2021/05/09 08:18:05;;;;;;;;;;;16.60;87.40;;;;;;5036279;28;20480;-84
2021/05/09 08:20:31;;;;;;;;;;;16.60;87.60;;;;;;5037880;28;19912;-84
2021/05/09 08:22:57;;;;;;;;;;;16.70;87.10;;;;;;5036903;28;19905;-85
2021/05/09 08:25:23;;;;;;;;;;;16.80;87.20;;;;;;5037331;28;19999;-84
2021/05/09 08:27:49;;;;;;;;;;;16.90;87.30;;;;;;5036876;28;19912;-83
2021/05/09 08:30:15;;;;;;;;;;;16.90;87.30;;;;;;5033362;28;19967;-85
2021/05/09 08:32:41;;;;;;;;;;;17.10;86.90;;;;;;5034826;28;19963;-83
2021/05/09 08:35:10;;;;;;;;;;;17.10;86.80;;;;;;5035476;28;19988;-84
2021/05/09 08:37:36;;;;;;;;;;;17.10;87.10;;;;;;5033653;28;20397;-84
2021/05/09 08:40:02;;;;;;;;;;;17.10;87.60;;;;;;5032425;28;19909;-84
2021/05/09 08:42:27;;;;;;;;;;;17.20;87.00;;;;;;5034416;28;19959;-85
2021/05/09 08:44:54;;;;;;;;;;;17.20;87.10;;;;;;5031411;28;19905;-84
2021/05/09 08:47:22;;;;;;;;;;;17.20;86.90;;;;;;5030985;28;19905;-84
2021/05/09 08:49:51;;;;;;;;;;;17.30;87.50;;;;;;5030522;28;19905;-84
2021/05/09 08:52:17;;;;;;;;;;;17.30;87.60;;;;;;5030967;28;20417;-84
2021/05/09 08:54:43;;;;;;;;;;;17.30;87.70;;;;;;5047667;28;19980;-84
2021/05/09 08:57:08;;;;;;;;;;;17.40;87.60;;;;;;5030941;28;19995;-84
2021/05/09 08:59:35;;;;;;;;;;;17.30;87.70;;;;;;5047315;28;19909;-84
2021/05/09 09:02:00;;;;;;;;;;;17.30;87.80;;;;;;5030688;28;19915;-84
2021/05/09 09:04:40;;;;;;;;;;;17.40;87.90;;;;;;5031253;28;19940;-84
2021/05/09 09:07:05;;;;;;;;;;;17.40;87.60;;;;;;5031298;28;20229;-85
2021/05/09 09:09:31;;;;;;;;;;;17.50;87.30;;;;;;5030786;28;19909;-84
2021/05/09 09:11:57;;;;;;;;;;;17.60;87.50;;;;;;5032944;28;19911;-84
2021/05/09 09:14:27;;;;;;;;;;;17.70;87.10;;;;;;5031515;28;19958;-85
2021/05/09 09:17:08;;;;;;;;;;;17.80;87.00;;;;;;5031518;28;19905;-85
2021/05/09 09:19:34;;;;;;;;;;;17.90;86.50;;;;;;5030677;28;19909;-84
2021/05/09 09:21:59;;;;;;;;;;;18.20;85.60;;;;;;5031180;28;19950;-85
2021/05/09 09:24:25;;;;;;;;;;;18.20;86.10;;;;;;5031779;28;19909;-85
2021/05/09 09:26:52;;;;;;;;;;;18.20;86.10;;;;;;5033254;28;19905;-84
2021/05/09 09:29:33;;;;;;;;;;;18.40;86.10;;;;;;5034984;28;19913;-84
2021/05/09 09:32:01;;;;;;;;;;;18.50;85.80;;;;;;5033949;28;19912;-85
2021/05/09 09:34:38;;;;;;;;;;;18.60;84.80;;;;;;5034144;28;19916;-84
2021/05/09 09:37:04;;;;;;;;;;;18.70;84.80;;;;;;5035597;28;19912;-84
2021/05/09 09:39:48;;;;;;;;;;;18.90;84.80;;;;;;5034041;28;19909;-84
2021/05/09 09:42:14;;;;;;;;;;;18.90;84.80;;;;;;5034591;28;19905;-83
2021/05/09 09:44:40;;;;;;;;;;;18.80;84.00;;;;;;5034058;28;19905;-85
2021/05/09 09:47:05;;;;;;;;;;;18.80;83.50;;;;;;5034201;28;19916;-85
2021/05/09 09:49:34;;;;;;;;;;;18.80;83.70;;;;;;5049843;28;20358;-84
2021/05/09 09:52:00;;;;;;;;;;;18.90;82.80;;;;;;5033731;28;19905;-85
2021/05/09 09:54:29;;;;;;;;;;;19.10;82.40;;;;;;5035167;28;20258;-84
2021/05/09 09:56:54;;;;;;;;;;;19.00;82.90;;;;;;5034858;28;20389;-85
2021/05/09 09:59:20;;;;;;;;;;;18.90;83.50;;;;;;5034200;28;19919;-84
2021/05/09 10:01:45;;;;;;;;;;;19.00;83.30;;;;;;5034886;28;19909;-84
2021/05/09 10:04:13;;;;;;;;;;;19.00;82.80;;;;;;5049929;28;19944;-84
2021/05/09 10:06:39;;;;;;;;;;;18.90;83.30;;;;;;5033511;28;19963;-84
2021/05/09 10:09:05;;;;;;;;;;;18.80;83.80;;;;;;5034287;28;19996;-84
2021/05/09 10:11:32;;;;;;;;;;;18.70;84.30;;;;;;5033334;28;19905;-84
2021/05/09 10:13:58;;;;;;;;;;;18.80;84.60;;;;;;5034610;28;19912;-84
2021/05/09 10:16:24;;;;;;;;;;;18.90;83.90;;;;;;5033474;28;19955;-84
2021/05/09 10:18:57;;;;;;;;;;;18.90;84.20;;;;;;5034472;28;19909;-84
2021/05/09 10:21:30;;;;;;;;;;;19.00;84.00;;;;;;5033307;28;20345;-84
2021/05/09 10:24:08;;;;;;;;;;;19.10;84.20;;;;;;5033274;28;20397;-84
2021/05/09 10:26:44;;;;;;;;;;;19.20;83.20;;;;;;5034521;28;19948;-84
2021/05/09 10:29:32;;;;;;;;;;;19.60;81.40;;;;;;5032400;28;19913;-84
2021/05/09 10:31:58;;;;;;;;;;;19.70;80.30;;;;;;5026570;28;19908;-84
2021/05/09 10:34:42;;;;;;;;;;;19.80;79.60;;;;;;5033140;28;20067;-84
2021/05/09 10:37:08;;;;;;;;;;;19.90;79.10;;;;;;5033864;28;20007;-84
2021/05/09 10:39:33;;;;;;;;;;;20.00;78.50;;;;;;5031511;28;20011;-85
2021/05/09 10:42:02;;;;;;;;;;;20.10;78.00;;;;;;5049463;28;19959;-84
2021/05/09 10:44:45;;;;;;;;;;;20.10;78.20;;;;;;5033353;28;19905;-85
2021/05/09 10:47:16;;;;;;;;;;;20.00;78.40;;;;;;5033589;28;20254;-85
2021/05/09 10:50:00;;;;;;;;;;;20.10;78.20;;;;;;5033316;28;19905;-85
2021/05/09 10:52:39;;;;;;;;;;;20.20;78.10;;;;;;5034593;28;20007;-84
2021/05/09 10:55:04;;;;;;;;;;;20.30;77.20;;;;;;5033929;28;20049;-84
2021/05/09 10:57:43;;;;;;;;;;;20.30;77.30;;;;;;5033918;28;19909;-84
2021/05/09 11:00:09;;;;;;;;;;;20.20;77.80;;;;;;5033407;28;19913;-85
2021/05/09 11:02:37;;;;;;;;;;;20.20;77.90;;;;;;5034924;28;19958;-85
2021/05/09 11:05:03;;;;;;;;;;;20.20;77.60;;;;;;5033525;28;19998;-86
2021/05/09 11:07:42;;;;;;;;;;;20.20;77.50;;;;;;5034420;28;19932;-84
2021/05/09 11:10:26;;;;;;;;;;;20.20;77.80;;;;;;5032898;28;20374;-85
2021/05/09 11:13:01;;;;;;;;;;;20.20;77.30;;;;;;5034374;28;19905;-84
2021/05/09 11:15:27;;;;;;;;;;;20.30;77.10;;;;;;5033973;28;20289;-85
2021/05/09 11:17:52;;;;;;;;;;;20.40;76.50;;;;;;5032622;28;19905;-85
2021/05/09 11:20:18;;;;;;;;;;;20.40;76.20;;;;;;5033352;28;19916;-84
2021/05/09 11:22:43;;;;;;;;;;;20.40;76.40;;;;;;5036472;28;19912;-84
2021/05/09 11:25:10;;;;;;;;;;;20.60;75.80;;;;;;5034102;28;19905;-84
2021/05/09 11:27:44;;;;;;;;;;;20.80;75.80;;;;;;5034025;28;19991;-84
2021/05/09 11:30:10;;;;;;;;;;;20.80;75.30;;;;;;5033553;28;19909;-85
2021/05/09 11:32:36;;;;;;;;;;;20.70;75.70;;;;;;5032690;28;19923;-85
2021/05/09 11:35:03;;;;;;;;;;;20.70;76.00;;;;;;5034356;28;19905;-84
2021/05/09 11:37:32;;;;;;;;;;;20.80;75.80;;;;;;5034198;28;19963;-85
2021/05/09 11:39:59;;;;;;;;;;;20.60;76.20;;;;;;5042803;28;19909;-84
2021/05/09 11:42:27;;;;;;;;;;;20.60;76.20;;;;;;5036804;28;19909;-85
2021/05/09 11:44:52;;;;;;;;;;;20.70;76.30;;;;;;5034254;28;20373;-85
2021/05/09 11:47:21;;;;;;;;;;;20.70;76.70;;;;;;5038277;28;19905;-84
2021/05/09 11:49:46;;;;;;;;;;;21.10;75.10;;;;;;5041000;28;19916;-85
2021/05/09 11:52:20;;;;;;;;;;;21.10;74.50;;;;;;5040473;28;19909;-84
2021/05/09 11:54:53;;;;;;;;;;;21.00;74.80;;;;;;5038894;28;19994;-84
2021/05/09 11:57:20;;;;;;;;;;;21.10;74.70;;;;;;5038626;28;19905;-84
2021/05/09 11:59:47;;;;;;;;;;;21.10;74.70;;;;;;5038033;28;19913;-85
2021/05/09 12:02:16;;;;;;;;;;;21.20;74.90;;;;;;5039228;28;20000;-84
2021/05/09 12:04:41;;;;;;;;;;;21.30;74.00;;;;;;5039800;28;19905;-84
2021/05/09 12:07:09;;;;;;;;;;;21.20;74.30;;;;;;5037964;28;19909;-84
2021/05/09 12:09:34;;;;;;;;;;;21.30;74.30;;;;;;5037420;28;20393;-85
2021/05/09 12:12:00;;;;;;;;;;;21.30;74.30;;;;;;5038571;28;19940;-84
2021/05/09 12:14:27;;;;;;;;;;;21.40;74.50;;;;;;5040090;28;19909;-85
2021/05/09 12:16:53;;;;;;;;;;;21.70;73.70;;;;;;5036757;28;19905;-85
2021/05/09 12:19:19;;;;;;;;;;;21.90;72.80;;;;;;5048105;28;20388;-84
2021/05/09 12:21:55;;;;;;;;;;;22.10;72.00;;;;;;5032481;28;19988;-85
2021/05/09 12:24:20;;;;;;;;;;;22.20;71.00;;;;;;5032510;28;19909;-85
2021/05/09 12:27:05;;;;;;;;;;;22.30;70.10;;;;;;5033063;28;19932;-85
2021/05/09 12:29:31;;;;;;;;;;;22.40;70.20;;;;;;5034469;28;20007;-85
2021/05/09 12:32:34;;;;;;;;;;;22.70;69.50;;;;;;5033885;28;20357;-85
2021/05/09 12:35:00;;;;;;;;;;;22.80;68.90;;;;;;5011670;28;19905;-85
2021/05/09 12:37:29;;;;;;;;;;;22.80;69.60;;;;;;5034807;28;19992;-85
2021/05/09 12:40:13;;;;;;;;;;;22.60;70.50;;;;;;5032670;28;19909;-85
2021/05/09 12:42:54;;;;;;;;;;;22.60;70.70;;;;;;5032979;28;19905;-85
2021/05/09 12:45:34;;;;;;;;;;;22.60;71.00;;;;;;5033513;28;20289;-84
2021/05/09 12:48:01;;;;;;;;;;;22.50;71.00;;;;;;5033165;28;19905;-85
2021/05/09 12:50:42;;;;;;;;;;;22.70;70.20;;;;;;5048708;28;19916;-85
2021/05/09 12:53:07;;;;;;;;;;;22.70;71.20;;;;;;5032064;28;20328;-85
2021/05/09 12:55:33;;;;;;;;;;;22.70;69.80;;;;;;5031704;28;19967;-85
2021/05/09 12:58:09;;;;;;;;;;;22.90;68.40;;;;;;5031679;28;19955;-84
2021/05/09 13:00:35;;;;;;;;;;;23.30;65.40;;;;;;5030879;28;19952;-85
2021/05/09 13:03:00;;;;;;;;;;;23.40;65.40;;;;;;5034994;28;19959;-85
2021/05/09 13:05:26;;;;;;;;;;;23.40;64.00;;;;;;5036385;28;19909;-85
2021/05/09 13:07:53;;;;;;;;;;;23.40;63.90;;;;;;5034748;28;19905;-85
2021/05/09 13:10:19;;;;;;;;;;;23.30;64.90;;;;;;5034260;28;19905;-85
2021/05/09 13:12:49;;;;;;;;;;;23.40;64.40;;;;;;5036223;28;19936;-85
2021/05/09 13:15:14;;;;;;;;;;;23.40;65.10;;;;;;5036818;28;19909;-84
2021/05/09 13:17:40;;;;;;;;;;;23.30;65.40;;;;;;5036897;28;19959;-84
2021/05/09 13:20:06;;;;;;;4.18;2.50;;;23.10;65.90;;;;;;5033325;28;20285;-84
2021/05/09 13:22:32;;;;;;;2.97;1.67;;;23.30;65.00;;;;;;5033836;28;20025;-84
2021/05/09 13:24:58;;;;;;;3.47;1.73;;;23.30;64.80;;;;;;5034046;28;20037;-84
2021/05/09 13:27:27;;;;;;;4.90;2.53;;;23.30;65.60;;;;;;5034048;28;20104;-84
2021/05/09 13:29:52;;;;;;;6.47;2.70;;;23.00;66.50;;;;;;5033227;28;20033;-85
2021/05/09 13:32:18;;;;;;;5.75;2.40;;;23.20;65.90;;;;;;5034025;28;20508;-85
2021/05/09 13:34:45;;;;;;;8.02;2.00;;;23.00;66.20;;;;;;5034143;28;20037;-85
2021/05/09 13:37:11;;;;;;;4.60;1.70;;;23.00;65.40;;;;;;5034404;28;20025;-85
2021/05/09 13:39:36;;;;;;;4.85;1.60;;;23.10;65.90;;;;;;5033877;28;20034;-84
2021/05/09 13:42:02;;;;;;;3.70;1.73;;;23.20;65.20;;;;;;5035536;28;20026;-85
2021/05/09 13:44:28;;;;;;;4.63;1.83;;;23.10;65.80;;;;;;5035286;28;20049;-84
2021/05/09 13:46:54;;;;;;;3.63;1.58;;;23.20;65.80;;;;;;5035437;28;20017;-84
2021/05/09 13:49:20;;;;;;;3.03;1.30;;;23.00;66.50;;;;;;5034679;28;20040;-84
2021/05/09 13:51:46;;;;;;;5.03;2.03;;;22.90;67.10;;;;;;5034924;28;20631;-85
2021/05/09 13:54:12;;;;;;;3.85;1.67;;;23.00;67.30;;;;;;5035025;28;20053;-85
2021/05/09 13:56:39;;;;;;;5.68;2.08;;;23.30;66.50;;;;;;5034708;28;20037;-85
2021/05/09 13:59:05;;;;;;;7.93;2.00;;;23.40;65.10;;;;;;5033800;28;20077;-85
2021/05/09 14:01:32;;;;;;;4.05;1.67;;;23.70;64.10;;;;;;5033838;28;20104;-85
2021/05/09 14:03:59;;;;;;;3.80;1.67;;;23.70;62.50;;;;;;5033326;28;20024;-85
2021/05/09 14:06:28;;;;;;;2.75;1.50;;;24.00;62.00;;;;;;5034462;28;20021;-85
2021/05/09 14:08:54;;;;;;;5.38;1.50;;;24.10;61.40;;;;;;5032663;28;20079;-85
2021/05/09 14:11:20;;;;;;;3.35;1.60;;;24.30;60.90;;;;;;5034383;28;20029;-85
2021/05/09 14:13:46;;;;;;;4.85;1.85;;;24.40;61.20;;;;;;5032905;28;20127;-85
2021/05/09 14:16:13;;;;;;;4.97;1.88;;;24.40;61.80;;;;;;5032891;28;20112;-84